Time;durP1;ratioP1;P1;durP2;ratioP2;P2;SDS_P1;SDS_P2;PMS_P1;PMS_P2;Temp;Humidity;BMP_temperature;BMP_pressure;BME280_temperature;BME280_humidity;BME280_pressure;Samples;Min_cycle;Max_cycle;Signal;HPM_P1;HPM_P2
2023/06/14 00:01:51;;;;;;;5.43;2.00;;;17.20;82.10;;;;;;5117029;28;20044;-58
2023/06/14 00:04:16;;;;;;;4.55;2.10;;;17.10;82.50;;;;;;5117961;28;20045;-57
2023/06/14 00:06:44;;;;;;;4.45;1.75;;;17.20;82.80;;;;;;5118365;28;20075;-57
2023/06/14 00:09:12;;;;;;;6.13;2.03;;;17.10;83.30;;;;;;5118214;28;20116;-57
2023/06/14 00:11:39;;;;;;;6.82;2.10;;;16.90;83.80;;;;;;5118329;28;20048;-57
2023/06/14 00:14:05;;;;;;;6.45;1.90;;;16.90;83.80;;;;;;5117611;28;20762;-57
2023/06/14 00:16:32;;;;;;;4.90;1.67;;;16.90;84.70;;;;;;5116643;28;20043;-56
2023/06/14 00:18:58;;;;;;;4.80;1.90;;;16.80;84.30;;;;;;5118505;28;20051;-57
2023/06/14 00:21:24;;;;;;;7.13;1.77;;;16.80;84.40;;;;;;5117859;28;20048;-57
2023/06/14 00:23:49;;;;;;;5.85;1.92;;;16.70;85.20;;;;;;5118189;28;20032;-56
2023/06/14 00:26:16;;;;;;;5.70;1.80;;;16.60;85.70;;;;;;5117836;28;20078;-58
2023/06/14 00:28:42;;;;;;;5.78;1.75;;;16.60;85.60;;;;;;5117928;28;20089;-57
2023/06/14 00:31:08;;;;;;;4.97;1.65;;;16.60;86.10;;;;;;5117712;28;20650;-57
2023/06/14 00:33:33;;;;;;;5.50;1.92;;;16.60;86.90;;;;;;5117424;28;20099;-57
2023/06/14 00:35:59;;;;;;;5.82;1.85;;;16.50;87.60;;;;;;5121475;28;20065;-57
2023/06/14 00:38:24;;;;;;;4.97;1.88;;;16.50;88.00;;;;;;5121582;28;20043;-57
2023/06/14 00:40:50;;;;;;;5.72;2.00;;;16.40;88.30;;;;;;5122120;28;20113;-57
2023/06/14 00:43:16;;;;;;;6.88;1.80;;;16.40;88.90;;;;;;5120248;28;20514;-58
2023/06/14 00:45:42;;;;;;;6.32;1.73;;;16.50;89.70;;;;;;5120133;28;20054;-57
2023/06/14 00:48:09;;;;;;;9.50;2.13;;;16.40;89.80;;;;;;5121536;28;20043;-57
2023/06/14 00:50:36;;;;;;;5.40;1.67;;;16.40;89.40;;;;;;5121521;28;20065;-57
2023/06/14 00:53:02;;;;;;;6.53;1.92;;;16.30;89.80;;;;;;5121789;28;20572;-56
2023/06/14 00:55:28;;;;;;;6.03;1.65;;;16.30;90.00;;;;;;5121388;28;20035;-57
2023/06/14 00:57:55;;;;;;;4.95;1.60;;;16.30;90.10;;;;;;5121632;28;20071;-57
2023/06/14 01:00:20;;;;;;;5.47;1.70;;;16.30;90.40;;;;;;5121476;28;20059;-57
2023/06/14 01:02:46;;;;;;;6.00;1.60;;;16.20;91.00;;;;;;5120981;28;20047;-57
2023/06/14 01:05:12;;;;;;;5.30;1.63;;;16.20;90.90;;;;;;5121159;28;20048;-57
2023/06/14 01:07:47;;;;;;;7.43;2.10;;;16.30;90.80;;;;;;5121008;28;20507;-57
2023/06/14 01:10:43;;;;;;;5.05;1.73;;;16.10;91.30;;;;;;5121732;28;20040;-57
2023/06/14 01:13:37;;;;;;;4.75;1.40;;;16.10;91.70;;;;;;5121224;28;20112;-57
2023/06/14 01:16:04;;;;;;;13.10;2.85;;;16.10;92.10;;;;;;5120293;28;20580;-58
2023/06/14 01:18:32;;;;;;;6.15;1.95;;;16.20;91.50;;;;;;5121072;28;20097;-57
2023/06/14 01:20:58;;;;;;;5.90;1.73;;;16.10;91.60;;;;;;5120416;27;20044;-57
2023/06/14 01:23:25;;;;;;;5.65;1.77;;;16.10;91.90;;;;;;5121278;28;20048;-57
2023/06/14 01:25:55;;;;;;;5.03;1.58;;;16.10;91.90;;;;;;5120772;28;20043;-57
2023/06/14 01:28:21;;;;;;;5.32;1.70;;;16.10;92.00;;;;;;5120651;28;20044;-57
2023/06/14 01:30:54;;;;;;;4.78;1.77;;;16.00;92.20;;;;;;5120476;28;20542;-56
2023/06/14 01:33:22;;;;;;;5.68;1.70;;;16.00;92.40;;;;;;5120371;28;20047;-57
2023/06/14 01:35:51;;;;;;;5.13;1.70;;;16.00;92.50;;;;;;5120949;28;20130;-57
2023/06/14 01:38:23;;;;;;;4.95;1.77;;;15.90;92.80;;;;;;5120657;28;20047;-57
2023/06/14 01:40:50;;;;;;;6.10;2.00;;;15.80;93.10;;;;;;5120938;27;20118;-57
2023/06/14 01:43:16;;;;;;;5.43;1.65;;;15.90;93.20;;;;;;5120707;28;20119;-57
2023/06/14 01:45:44;;;;;;;4.80;1.55;;;15.80;93.20;;;;;;5119963;28;20082;-55
2023/06/14 01:48:10;;;;;;;5.28;1.60;;;15.90;93.40;;;;;;5120282;28;20051;-56
2023/06/14 01:50:35;;;;;;;6.75;1.70;;;15.80;93.30;;;;;;5120262;28;20134;-57
2023/06/14 01:53:01;;;;;;;5.95;1.88;;;15.70;93.80;;;;;;5120795;28;20040;-56
2023/06/14 01:55:27;;;;;;;4.32;1.73;;;15.80;93.80;;;;;;5119916;28;20051;-57
2023/06/14 01:57:53;;;;;;;5.40;1.88;;;15.70;93.80;;;;;;5120541;28;20046;-57
2023/06/14 02:00:19;;;;;;;6.07;1.60;;;15.70;94.00;;;;;;5120158;28;20091;-57
2023/06/14 02:02:45;;;;;;;5.68;1.80;;;15.60;94.10;;;;;;5119431;28;20070;-57
2023/06/14 02:05:11;;;;;;;5.57;1.90;;;15.80;94.20;;;;;;5120042;28;20047;-57
2023/06/14 02:07:37;;;;;;;5.90;1.70;;;15.70;94.30;;;;;;5119676;28;20047;-57
2023/06/14 02:10:04;;;;;;;5.75;2.03;;;15.70;94.40;;;;;;5118908;28;20094;-56
2023/06/14 02:12:30;;;;;;;5.60;1.95;;;15.70;94.80;;;;;;5119661;28;20067;-57
2023/06/14 02:14:56;;;;;;;5.63;1.70;;;15.70;95.00;;;;;;5120216;28;20039;-57
2023/06/14 02:17:22;;;;;;;4.47;1.70;;;15.60;95.10;;;;;;5119593;28;20054;-57
2023/06/14 02:19:48;;;;;;;5.55;1.70;;;15.60;95.10;;;;;;5119926;28;20039;-57
2023/06/14 02:22:14;;;;;;;5.45;1.98;;;15.60;95.10;;;;;;5119596;28;20112;-57
2023/06/14 02:24:41;;;;;;;5.03;1.63;;;15.60;95.30;;;;;;5119776;28;20047;-57
2023/06/14 02:27:10;;;;;;;5.78;2.00;;;15.50;95.70;;;;;;5119796;28;20112;-57
2023/06/14 02:29:36;;;;;;;5.65;1.50;;;15.60;96.10;;;;;;5119054;28;20055;-57
2023/06/14 02:32:02;;;;;;;4.50;1.60;;;15.60;95.90;;;;;;5119858;28;20040;-56
2023/06/14 02:34:28;;;;;;;4.40;1.95;;;15.60;96.20;;;;;;5119658;27;20494;-57
2023/06/14 02:36:55;;;;;;;5.13;2.00;;;15.60;96.80;;;;;;5119378;28;20047;-57
2023/06/14 02:39:23;;;;;;;4.95;2.00;;;15.60;96.60;;;;;;5119508;28;20511;-55
2023/06/14 02:41:50;;;;;;;6.78;2.15;;;15.60;96.70;;;;;;5119372;28;20060;-57
2023/06/14 02:44:18;;;;;;;5.38;2.00;;;15.50;96.70;;;;;;5119512;28;20055;-56
2023/06/14 02:46:43;;;;;;;6.20;1.83;;;15.50;97.40;;;;;;5118977;28;20511;-57
2023/06/14 02:49:10;;;;;;;7.60;2.00;;;15.40;97.60;;;;;;5119664;28;20050;-57
2023/06/14 02:51:35;;;;;;;5.80;2.35;;;15.40;97.60;;;;;;5119282;28;20066;-57
2023/06/14 02:54:01;;;;;;;5.78;2.15;;;15.40;97.70;;;;;;5119397;28;20106;-57
2023/06/14 02:56:27;;;;;;;6.13;2.05;;;15.40;98.30;;;;;;5119033;28;20047;-57
2023/06/14 02:58:53;;;;;;;5.57;1.92;;;15.40;98.40;;;;;;5118374;28;20036;-56
2023/06/14 03:01:20;;;;;;;6.22;1.92;;;15.30;98.60;;;;;;5119271;28;20537;-57
2023/06/14 03:03:46;;;;;;;6.50;2.28;;;15.40;99.50;;;;;;5117285;28;20521;-57
2023/06/14 03:06:12;;;;;;;4.70;1.80;;;15.30;98.90;;;;;;5119470;28;20043;-56
2023/06/14 03:08:38;;;;;;;5.57;2.45;;;15.20;99.50;;;;;;5118814;28;20563;-56
2023/06/14 03:11:07;;;;;;;5.63;2.00;;;15.30;99.60;;;;;;5118829;28;20032;-57
2023/06/14 03:13:34;;;;;;;7.50;2.33;;;15.30;99.90;;;;;;5118633;28;20066;-59
2023/06/14 03:16:03;;;;;;;6.13;2.00;;;15.20;99.90;;;;;;5118890;28;20093;-56
2023/06/14 03:18:35;;;;;;;6.82;2.30;;;15.20;99.90;;;;;;5118870;28;20077;-57
2023/06/14 03:21:01;;;;;;;;;;;15.20;99.90;;;;;;5119292;28;20822;-57
2023/06/14 03:23:27;;;;;;;6.35;2.30;;;15.20;99.90;;;;;;5117682;28;19920;-57
2023/06/14 03:25:52;;;;;;;5.40;1.92;;;15.20;99.90;;;;;;5118678;28;20103;-57
2023/06/14 03:28:18;;;;;;;6.65;2.30;;;15.20;99.90;;;;;;5118398;28;20043;-57
2023/06/14 03:30:44;;;;;;;6.10;2.00;;;15.20;99.90;;;;;;5118558;28;20047;-57
2023/06/14 03:33:10;;;;;;;5.60;2.35;;;15.20;99.90;;;;;;5117052;28;20040;-59
2023/06/14 03:35:36;;;;;;;6.35;2.40;;;15.10;99.90;;;;;;5117493;28;20077;-57
2023/06/14 03:38:03;;;;;;;6.45;2.40;;;15.10;99.90;;;;;;5118467;28;20043;-57
2023/06/14 03:40:29;;;;;;;6.35;2.63;;;15.10;99.90;;;;;;5118811;28;20376;-56
2023/06/14 03:42:55;;;;;;;5.97;2.47;;;15.20;99.90;;;;;;5118560;28;20054;-57
2023/06/14 03:45:21;;;;;;;5.00;2.35;;;15.20;99.90;;;;;;5118275;28;20419;-56
2023/06/14 03:47:47;;;;;;;5.85;2.47;;;15.10;99.90;;;;;;5116796;28;20600;-57
2023/06/14 03:50:13;;;;;;;5.80;2.28;;;15.20;99.90;;;;;;5118382;28;20047;-57
2023/06/14 03:52:40;;;;;;;6.45;2.22;;;15.20;99.90;;;;;;5117135;28;20431;-57
2023/06/14 03:55:06;;;;;;;7.45;2.40;;;15.20;99.90;;;;;;5118134;28;20448;-57
2023/06/14 03:57:31;;;;;;;5.43;2.35;;;15.20;99.90;;;;;;5118574;28;20051;-57
2023/06/14 03:59:57;;;;;;;7.18;2.30;;;15.30;99.90;;;;;;5118206;28;20161;-59
2023/06/14 04:02:23;;;;;;;5.93;2.42;;;15.30;99.90;;;;;;5117822;28;20043;-58
2023/06/14 04:04:49;;;;;;;5.82;2.20;;;15.30;99.90;;;;;;5118203;28;20032;-59
2023/06/14 04:07:20;;;;;;;7.18;2.60;;;15.30;99.90;;;;;;5118359;28;20032;-60
2023/06/14 04:09:47;;;;;;;8.50;2.47;;;15.30;99.90;;;;;;5121399;28;20588;-58
2023/06/14 04:12:12;;;;;;;8.00;2.63;;;15.40;99.90;;;;;;5120595;28;20043;-57
2023/06/14 04:14:42;;;;;;;6.22;2.70;;;15.40;99.90;;;;;;5122961;28;20561;-58
2023/06/14 04:17:08;;;;;;;6.35;2.47;;;15.40;99.90;;;;;;5121727;27;20099;-58
2023/06/14 04:19:34;;;;;;;7.05;2.35;;;15.50;99.90;;;;;;5122023;28;20055;-57
2023/06/14 04:22:01;;;;;;;6.43;2.58;;;15.50;99.90;;;;;;5120657;28;20051;-57
2023/06/14 04:24:31;;;;;;;8.45;3.20;;;15.50;99.90;;;;;;5122101;28;20105;-60
2023/06/14 04:26:59;;;;;;;7.10;2.55;;;15.50;99.90;;;;;;5122086;28;20554;-56
2023/06/14 04:29:26;;;;;;;5.20;2.30;;;15.60;99.90;;;;;;5121811;28;20047;-57
2023/06/14 04:31:54;;;;;;;7.60;3.22;;;15.60;99.90;;;;;;5122131;28;20042;-57
2023/06/14 04:34:21;;;;;;;6.50;2.42;;;15.60;99.90;;;;;;5121862;28;20451;-57
2023/06/14 04:36:52;;;;;;;7.10;3.05;;;15.70;99.90;;;;;;5121828;27;20043;-62
2023/06/14 04:39:20;;;;;;;10.50;3.67;;;15.80;99.90;;;;;;5121849;28;20051;-58
2023/06/14 04:41:46;;;;;;;9.68;2.72;;;15.80;99.90;;;;;;5121685;28;20055;-57
2023/06/14 04:44:12;;;;;;;6.60;3.13;;;16.00;99.90;;;;;;5121983;28;20122;-58
2023/06/14 04:46:48;;;;;;;6.57;2.83;;;16.00;99.90;;;;;;5121568;28;20509;-57
2023/06/14 04:49:17;;;;;;;6.28;3.00;;;16.10;99.90;;;;;;5121481;28;20059;-57
2023/06/14 04:51:44;;;;;;;8.55;3.15;;;16.20;99.90;;;;;;5121645;28;20044;-56
2023/06/14 04:54:13;;;;;;;6.78;3.00;;;16.20;99.90;;;;;;5121607;28;20076;-56
2023/06/14 04:56:42;;;;;;;5.63;2.70;;;16.30;99.90;;;;;;5121204;28;20077;-57
2023/06/14 04:59:08;;;;;;;8.90;2.75;;;16.40;99.90;;;;;;5121139;28;20040;-56
2023/06/14 05:01:35;;;;;;;7.20;3.35;;;16.50;99.90;;;;;;5120115;28;20052;-57
2023/06/14 05:04:01;;;;;;;7.07;2.65;;;16.60;99.90;;;;;;5119728;28;20103;-57
2023/06/14 05:06:27;;;;;;;6.07;2.80;;;16.60;99.90;;;;;;5121437;28;20137;-57
2023/06/14 05:08:53;;;;;;;7.03;3.08;;;16.70;99.90;;;;;;5121223;28;20051;-57
2023/06/14 05:11:19;;;;;;;7.53;2.80;;;16.70;99.90;;;;;;5119946;28;20032;-57
2023/06/14 05:13:46;;;;;;;7.18;2.75;;;16.80;99.90;;;;;;5121143;28;20051;-57
2023/06/14 05:16:12;;;;;;;7.57;3.05;;;16.90;99.90;;;;;;5120775;28;20043;-57
2023/06/14 05:18:40;;;;;;;7.53;3.00;;;17.00;99.90;;;;;;5121189;28;20066;-57
2023/06/14 05:21:05;;;;;;;8.13;2.95;;;17.00;99.90;;;;;;5120123;28;20108;-58
2023/06/14 05:23:31;;;;;;;9.45;3.10;;;17.10;99.90;;;;;;5121099;28;20040;-57
2023/06/14 05:25:57;;;;;;;7.18;3.00;;;17.20;99.90;;;;;;5120920;28;20051;-57
2023/06/14 05:28:23;;;;;;;7.70;2.90;;;17.30;99.90;;;;;;5120795;28;20074;-57
2023/06/14 05:30:49;;;;;;;6.68;3.00;;;17.30;99.90;;;;;;5119557;28;20044;-56
2023/06/14 05:33:15;;;;;;;6.28;3.00;;;17.40;99.90;;;;;;5119366;28;20683;-57
2023/06/14 05:35:41;;;;;;;6.80;2.85;;;17.50;99.90;;;;;;5120961;28;20039;-57
2023/06/14 05:38:07;;;;;;;7.53;3.30;;;17.50;99.90;;;;;;5120544;28;20044;-57
2023/06/14 05:40:33;;;;;;;6.40;2.85;;;17.50;99.90;;;;;;5121065;28;20079;-57
2023/06/14 05:42:59;;;;;;;6.93;3.03;;;17.70;99.90;;;;;;5120559;28;20051;-57
2023/06/14 05:45:25;;;;;;;7.57;2.90;;;17.70;99.90;;;;;;5119010;28;20112;-57
2023/06/14 05:47:51;;;;;;;5.45;2.83;;;17.80;99.80;;;;;;5119037;28;20031;-57
2023/06/14 05:50:16;;;;;;;6.47;3.03;;;18.00;99.40;;;;;;5120428;28;20055;-56
2023/06/14 05:52:42;;;;;;;7.53;3.20;;;18.00;99.10;;;;;;5120810;28;20040;-56
2023/06/14 05:55:08;;;;;;;5.95;2.85;;;18.10;99.00;;;;;;5119816;28;20407;-57
2023/06/14 05:57:35;;;;;;;7.38;2.97;;;18.10;98.90;;;;;;5119493;28;20039;-57
2023/06/14 06:00:01;;;;;;;7.88;3.20;;;18.20;98.60;;;;;;5120140;28;20139;-57
2023/06/14 06:02:26;;;;;;;9.65;3.10;;;18.30;98.20;;;;;;5119690;28;20066;-55
2023/06/14 06:04:52;;;;;;;6.80;3.42;;;18.30;98.40;;;;;;5119950;28;20103;-57
2023/06/14 06:07:18;;;;;;;8.45;3.05;;;18.50;98.00;;;;;;5120173;28;20141;-57
2023/06/14 06:09:43;;;;;;;6.55;2.67;;;18.60;97.80;;;;;;5120296;28;20035;-58
2023/06/14 06:12:10;;;;;;;7.50;2.83;;;18.60;97.40;;;;;;5119756;28;20471;-58
2023/06/14 06:14:35;;;;;;;6.07;2.75;;;18.70;97.20;;;;;;5120510;28;20044;-58
2023/06/14 06:17:01;;;;;;;6.82;2.83;;;18.80;96.90;;;;;;5119274;28;20086;-57
2023/06/14 06:19:27;;;;;;;7.35;3.08;;;18.80;96.60;;;;;;5120017;28;20091;-58
2023/06/14 06:21:52;;;;;;;6.75;2.95;;;18.90;96.40;;;;;;5116025;28;20079;-57
2023/06/14 06:24:18;;;;;;;8.88;3.65;;;19.00;96.10;;;;;;5116395;28;20055;-57
2023/06/14 06:26:44;;;;;;;6.40;2.90;;;19.10;96.00;;;;;;5116409;28;20035;-57
2023/06/14 06:29:10;;;;;;;7.13;3.17;;;19.10;94.90;;;;;;5116211;28;20104;-57
2023/06/14 06:31:35;;;;;;;6.53;3.13;;;19.20;94.80;;;;;;5114593;28;20051;-56
2023/06/14 06:34:01;;;;;;;7.80;2.80;;;19.40;94.30;;;;;;5115305;28;20152;-57
2023/06/14 06:36:27;;;;;;;8.80;3.53;;;19.50;94.00;;;;;;5116417;28;20047;-57
2023/06/14 06:38:52;;;;;;;6.28;3.03;;;19.50;94.40;;;;;;5116121;28;20047;-57
2023/06/14 06:41:18;;;;;;;7.55;2.88;;;19.60;93.90;;;;;;5116297;28;20177;-57
2023/06/14 06:43:44;;;;;;;7.35;2.80;;;19.60;93.50;;;;;;5115934;28;20048;-57
2023/06/14 06:46:10;;;;;;;5.75;2.90;;;19.80;92.80;;;;;;5115577;28;20082;-57
2023/06/14 06:48:35;;;;;;;7.13;3.38;;;19.70;92.90;;;;;;5116515;28;20051;-57
2023/06/14 06:51:01;;;;;;;6.88;3.50;;;19.80;92.50;;;;;;5115647;28;20051;-57
2023/06/14 06:53:27;;;;;;;6.72;3.03;;;19.80;92.00;;;;;;5115780;28;20051;-57
2023/06/14 06:55:52;;;;;;;6.25;3.00;;;19.90;91.60;;;;;;5115771;28;20048;-57
2023/06/14 06:58:18;;;;;;;6.22;2.97;;;19.80;91.50;;;;;;5115079;28;20063;-57
2023/06/14 07:00:44;;;;;;;8.07;2.90;;;19.90;91.20;;;;;;5115504;27;20099;-57
2023/06/14 07:03:10;;;;;;;8.07;3.20;;;20.00;91.60;;;;;;5115083;28;20062;-57
2023/06/14 07:05:35;;;;;;;6.13;3.15;;;20.20;91.20;;;;;;5115924;28;20077;-57
2023/06/14 07:08:01;;;;;;;6.50;2.90;;;20.30;91.50;;;;;;5115395;28;20063;-57
2023/06/14 07:10:27;;;;;;;8.90;2.75;;;20.30;91.20;;;;;;5115604;28;20044;-57
2023/06/14 07:12:52;;;;;;;5.82;2.45;;;20.40;90.00;;;;;;5115610;28;20039;-56
2023/06/14 07:15:18;;;;;;;6.00;2.83;;;20.40;89.70;;;;;;5115476;28;20047;-56
2023/06/14 07:17:44;;;;;;;6.38;3.08;;;20.50;90.40;;;;;;5115209;28;20070;-57
2023/06/14 07:20:13;;;;;;;6.70;2.70;;;20.60;90.40;;;;;;5115436;28;20452;-57
2023/06/14 07:22:42;;;;;;;6.90;3.15;;;20.60;90.20;;;;;;5114803;28;20047;-57
2023/06/14 07:25:09;;;;;;;6.85;2.53;;;20.80;90.20;;;;;;5114416;28;20039;-57
2023/06/14 07:27:35;;;;;;;5.90;2.45;;;21.00;90.30;;;;;;5114248;28;20240;-57
2023/06/14 07:30:01;;;;;;;6.53;2.53;;;21.10;90.00;;;;;;5114424;28;20040;-57
2023/06/14 07:32:26;;;;;;;5.82;2.88;;;21.10;88.80;;;;;;5113636;28;20043;-58
2023/06/14 07:34:52;;;;;;;6.05;2.72;;;21.10;88.40;;;;;;5114295;28;20039;-59
2023/06/14 07:37:18;;;;;;;7.40;2.50;;;21.10;88.10;;;;;;5113085;28;20051;-57
2023/06/14 07:39:43;;;;;;;6.13;2.88;;;21.20;87.20;;;;;;5114182;28;20526;-58
2023/06/14 07:42:10;;;;;;;6.13;2.58;;;21.20;86.70;;;;;;5113648;28;20028;-58
2023/06/14 07:44:36;;;;;;;6.63;2.65;;;21.30;85.70;;;;;;5112552;28;20495;-58
2023/06/14 07:47:01;;;;;;;7.03;3.13;;;21.30;85.20;;;;;;5114012;28;20122;-58
2023/06/14 07:49:27;;;;;;;6.00;2.42;;;21.40;86.20;;;;;;5114164;28;20105;-58
2023/06/14 07:51:53;;;;;;;5.32;2.40;;;21.40;84.30;;;;;;5113864;28;20028;-57
2023/06/14 07:54:20;;;;;;;7.82;2.30;;;21.40;85.30;;;;;;5094021;28;20667;-57
2023/06/14 07:56:45;;;;;;;8.45;2.92;;;21.50;84.80;;;;;;5093478;28;20446;-57
2023/06/14 07:59:11;;;;;;;7.38;2.60;;;21.50;84.00;;;;;;5094409;28;20036;-57
2023/06/14 08:01:37;;;;;;;6.85;2.28;;;21.70;84.90;;;;;;5094934;28;20109;-58
2023/06/14 08:04:03;;;;;;;6.20;2.20;;;21.80;84.20;;;;;;5094345;28;20074;-57
2023/06/14 08:06:28;;;;;;;4.68;2.10;;;21.90;84.70;;;;;;5094584;28;20044;-58
2023/06/14 08:08:54;;;;;;;6.32;2.15;;;21.90;83.60;;;;;;5094119;28;20040;-58
2023/06/14 08:11:20;;;;;;;6.15;2.58;;;21.90;82.10;;;;;;5094174;28;20104;-57
2023/06/14 08:13:46;;;;;;;6.05;2.38;;;22.00;82.20;;;;;;5112351;28;20078;-58
2023/06/14 08:16:12;;;;;;;5.07;2.22;;;22.00;80.50;;;;;;5114447;28;20051;-57
2023/06/14 08:18:37;;;;;;;5.93;2.33;;;21.90;80.10;;;;;;5115037;28;20052;-58
2023/06/14 08:21:03;;;;;;;6.03;2.80;;;21.80;80.80;;;;;;5114001;28;20040;-58
2023/06/14 08:23:29;;;;;;;6.25;2.10;;;21.90;81.00;;;;;;5113487;28;20130;-58
2023/06/14 08:25:55;;;;;;;8.10;2.40;;;22.10;81.00;;;;;;5112974;28;20118;-58
2023/06/14 08:28:20;;;;;;;5.53;2.47;;;22.20;79.90;;;;;;5114328;28;20039;-58
2023/06/14 08:30:46;;;;;;;8.52;2.13;;;22.30;81.20;;;;;;5114457;28;20055;-57
2023/06/14 08:33:12;;;;;;;6.60;2.40;;;22.30;81.00;;;;;;5114047;28;20062;-57
2023/06/14 08:35:39;;;;;;;5.25;2.22;;;22.40;80.20;;;;;;5115150;28;20410;-56
2023/06/14 08:38:05;;;;;;;6.90;2.10;;;22.40;78.30;;;;;;5114408;28;20063;-57
2023/06/14 08:40:31;;;;;;;7.00;2.05;;;22.40;80.00;;;;;;5114678;28;20036;-58
2023/06/14 08:42:58;;;;;;;5.95;2.13;;;22.60;79.40;;;;;;5114622;28;20050;-57
2023/06/14 08:45:25;;;;;;;8.05;2.42;;;22.60;79.70;;;;;;5112826;28;20048;-56
2023/06/14 08:47:57;;;;;;;5.72;2.20;;;22.60;78.70;;;;;;5114124;28;20055;-57
2023/06/14 08:50:26;;;;;;;6.05;2.08;;;22.60;79.10;;;;;;5113602;28;20051;-57
2023/06/14 08:53:01;;;;;;;6.28;2.08;;;22.60;78.10;;;;;;5113024;28;20043;-58
2023/06/14 08:55:28;;;;;;;7.97;2.20;;;22.60;77.00;;;;;;5115213;28;20078;-58
2023/06/14 08:57:57;;;;;;;6.70;1.95;;;22.70;77.10;;;;;;5117807;28;20050;-57
2023/06/14 09:00:24;;;;;;;5.90;2.22;;;22.80;78.60;;;;;;5116319;28;20039;-58
2023/06/14 09:02:55;;;;;;;5.57;2.03;;;22.80;77.00;;;;;;5117446;28;20090;-58
2023/06/14 09:05:23;;;;;;;6.15;1.95;;;22.90;76.10;;;;;;5118152;28;20134;-57
2023/06/14 09:07:50;;;;;;;5.93;2.28;;;23.00;77.20;;;;;;5119190;28;20043;-57
2023/06/14 09:10:16;;;;;;;6.50;2.28;;;23.10;77.10;;;;;;5121209;28;20051;-57
2023/06/14 09:12:43;;;;;;;5.35;1.90;;;23.10;76.80;;;;;;5120510;28;20055;-58
2023/06/14 09:15:10;;;;;;;6.38;2.42;;;23.20;76.40;;;;;;5121112;28;20118;-58
2023/06/14 09:17:36;;;;;;;5.57;2.33;;;23.00;76.50;;;;;;5120877;28;20055;-58
2023/06/14 09:20:06;;;;;;;5.50;1.70;;;23.20;77.60;;;;;;5120950;28;20079;-57
2023/06/14 09:22:32;;;;;;;5.90;2.25;;;23.40;77.40;;;;;;5115945;28;20040;-57
2023/06/14 09:24:58;;;;;;;5.25;2.38;;;23.20;75.90;;;;;;5100185;28;20507;-58
2023/06/14 09:27:29;;;;;;;6.78;2.20;;;23.20;76.30;;;;;;5105024;28;20044;-58
2023/06/14 09:29:55;;;;;;;4.00;1.83;;;23.40;75.60;;;;;;5120693;28;20063;-57
2023/06/14 09:32:21;;;;;;;6.60;2.08;;;23.40;75.80;;;;;;5112073;28;20061;-58
2023/06/14 09:34:47;;;;;;;7.25;2.50;;;23.30;76.00;;;;;;5120584;28;20047;-58
2023/06/14 09:37:25;;;;;;;5.60;2.28;;;23.30;77.10;;;;;;5109646;28;20150;-57
2023/06/14 09:39:51;;;;;;;6.25;2.53;;;23.50;76.90;;;;;;5098811;28;20511;-58
2023/06/14 09:42:19;;;;;;;6.30;2.00;;;23.40;76.20;;;;;;5099680;28;20046;-58
2023/06/14 09:44:48;;;;;;;6.50;2.13;;;23.40;75.90;;;;;;5116906;28;20059;-57
2023/06/14 09:47:17;;;;;;;5.80;2.20;;;23.40;74.40;;;;;;5120321;28;20112;-58
2023/06/14 09:49:43;;;;;;;9.18;2.60;;;23.50;75.20;;;;;;5120354;28;20043;-58
2023/06/14 09:52:15;;;;;;;4.95;2.35;;;23.40;74.90;;;;;;5120049;28;20126;-58
2023/06/14 09:54:43;;;;;;;5.20;2.25;;;23.50;74.50;;;;;;5119920;28;20411;-60
2023/06/14 09:57:17;;;;;;;9.10;2.10;;;23.40;75.00;;;;;;5120533;28;20042;-58
2023/06/14 09:59:47;;;;;;;5.30;2.30;;;23.60;75.30;;;;;;5119886;28;20055;-58
2023/06/14 10:02:26;;;;;;;4.77;2.17;;;23.70;75.10;;;;;;5120110;28;20050;-58
2023/06/14 10:05:13;;;;;;;4.43;1.90;;;23.70;72.80;;;;;;5119839;28;20108;-58
2023/06/14 10:07:44;;;;;;;4.88;1.92;;;23.80;74.00;;;;;;5119418;28;20094;-58
2023/06/14 10:10:10;;;;;;;5.18;2.10;;;23.80;73.80;;;;;;5120144;28;20035;-58
2023/06/14 10:12:37;;;;;;;4.97;2.28;;;23.70;72.10;;;;;;5119809;28;20099;-57
2023/06/14 10:15:03;;;;;;;5.78;2.20;;;23.80;73.00;;;;;;5119991;28;20495;-58
2023/06/14 10:17:35;;;;;;;6.95;2.70;;;23.80;73.40;;;;;;5119347;28;20059;-58
2023/06/14 10:20:21;;;;;;;6.15;2.17;;;23.80;73.10;;;;;;5119865;28;20044;-58
2023/06/14 10:22:58;;;;;;;5.30;2.13;;;23.80;72.40;;;;;;5120128;28;20050;-58
2023/06/14 10:25:30;;;;;;;5.22;2.17;;;24.00;73.50;;;;;;5119263;28;20048;-57
2023/06/14 10:28:26;;;;;;;6.53;2.55;;;24.10;73.10;;;;;;5119444;28;20082;-58
2023/06/14 10:31:16;;;;;;;6.05;2.20;;;24.30;72.70;;;;;;5114013;28;20063;-58
2023/06/14 10:33:54;;;;;;;6.05;2.15;;;24.30;71.90;;;;;;5118568;28;20107;-57
2023/06/14 10:36:22;;;;;;;8.48;3.13;;;24.30;71.00;;;;;;5119515;28;20052;-58
2023/06/14 10:38:59;;;;;;;8.05;2.35;;;24.30;72.40;;;;;;5119317;28;20050;-56
2023/06/14 10:41:28;;;;;;;5.45;2.33;;;24.20;71.30;;;;;;5119113;28;20142;-58
2023/06/14 10:44:12;;;;;;;5.00;2.10;;;24.20;69.40;;;;;;5118984;27;20115;-58
2023/06/14 10:46:38;;;;;;;8.18;2.20;;;24.50;70.80;;;;;;5118867;28;20065;-56
2023/06/14 10:49:05;;;;;;;5.97;1.85;;;24.40;70.70;;;;;;5118994;28;20048;-57
2023/06/14 10:51:46;;;;;;;5.88;2.00;;;24.30;68.30;;;;;;5119334;28;20042;-57
2023/06/14 10:54:16;;;;;;;5.03;2.40;;;24.40;68.70;;;;;;5119191;28;20039;-58
2023/06/14 10:56:47;;;;;;;6.20;2.28;;;24.60;70.80;;;;;;5119239;28;20051;-58
2023/06/14 10:59:12;;;;;;;7.15;2.85;;;24.50;69.70;;;;;;5118853;28;20044;-57
2023/06/14 11:01:55;;;;;;;11.60;2.25;;;24.80;70.50;;;;;;5118779;28;20054;-58
2023/06/14 11:04:22;;;;;;;4.80;1.90;;;24.60;69.40;;;;;;5119040;28;20040;-57
2023/06/14 11:06:52;;;;;;;5.70;2.30;;;24.70;69.20;;;;;;5118541;28;20039;-57
2023/06/14 11:09:37;;;;;;;4.40;1.83;;;24.70;69.10;;;;;;5118573;28;20059;-57
2023/06/14 11:12:06;;;;;;;6.10;1.85;;;24.80;68.20;;;;;;5118373;28;20741;-58
2023/06/14 11:14:31;;;;;;;5.88;2.10;;;24.90;67.90;;;;;;5118873;28;20047;-58
2023/06/14 11:16:57;;;;;;;6.72;2.03;;;24.80;67.30;;;;;;5117827;28;20376;-58
2023/06/14 11:19:23;;;;;;;6.53;2.28;;;24.90;68.40;;;;;;5117913;28;20051;-58
2023/06/14 11:21:49;;;;;;;7.15;2.10;;;24.80;67.40;;;;;;5118229;28;20063;-57
2023/06/14 11:24:16;;;;;;;6.15;1.92;;;25.00;68.60;;;;;;5118502;28;20047;-57
2023/06/14 11:26:42;;;;;;;5.72;1.95;;;25.10;66.80;;;;;;5118223;28;20077;-58
2023/06/14 11:29:08;;;;;;;6.53;1.95;;;25.00;67.20;;;;;;5118050;28;20047;-58
2023/06/14 11:31:33;;;;;;;5.47;2.22;;;25.10;67.40;;;;;;5118606;28;20044;-58
2023/06/14 11:34:00;;;;;;;6.43;2.15;;;25.20;66.90;;;;;;5118102;28;20071;-56
2023/06/14 11:36:29;;;;;;;5.60;1.80;;;25.20;66.90;;;;;;5118635;27;20047;-57
2023/06/14 11:39:03;;;;;;;7.18;2.45;;;25.10;65.60;;;;;;5118304;28;20075;-59
2023/06/14 11:41:40;;;;;;;7.93;1.88;;;25.10;64.90;;;;;;5118366;28;20055;-58
2023/06/14 11:44:07;;;;;;;6.45;1.92;;;25.20;64.70;;;;;;5118628;28;20595;-57
2023/06/14 11:46:32;;;;;;;4.68;1.75;;;25.10;66.00;;;;;;5117919;28;20028;-57
2023/06/14 11:48:58;;;;;;;5.20;2.00;;;25.30;66.40;;;;;;5118433;28;20054;-58
2023/06/14 11:51:24;;;;;;;4.60;1.90;;;25.20;66.10;;;;;;5118305;28;20043;-58
2023/06/14 11:53:50;;;;;;;5.95;1.90;;;25.30;66.50;;;;;;5116220;28;20075;-58
2023/06/14 11:56:16;;;;;;;5.85;1.50;;;25.30;66.30;;;;;;5107103;28;20472;-58
2023/06/14 11:58:45;;;;;;;6.35;2.03;;;25.50;66.70;;;;;;5110194;28;20058;-58
2023/06/14 12:01:16;;;;;;;4.90;1.88;;;25.50;66.70;;;;;;5107837;28;20052;-57
2023/06/14 12:03:48;;;;;;;4.05;1.50;;;25.70;64.40;;;;;;5106238;28;20057;-58
2023/06/14 12:06:14;;;;;;;6.57;1.60;;;25.40;63.20;;;;;;5102984;28;20059;-58
2023/06/14 12:08:42;;;;;;;4.95;1.70;;;25.50;65.00;;;;;;5104734;28;20042;-60
2023/06/14 12:11:13;;;;;;;4.85;1.70;;;25.40;64.60;;;;;;5106433;28;20089;-60
2023/06/14 12:13:42;;;;;;;4.18;1.70;;;25.60;65.70;;;;;;5103568;28;20103;-60
2023/06/14 12:16:12;;;;;;;4.72;1.88;;;25.70;65.60;;;;;;5107535;28;20036;-61
2023/06/14 12:18:39;;;;;;;6.13;1.70;;;25.70;65.70;;;;;;5108391;28;20091;-60
2023/06/14 12:21:06;;;;;;;5.40;1.75;;;25.90;65.60;;;;;;5103002;28;20044;-60
2023/06/14 12:23:51;;;;;;;4.32;1.80;;;25.80;65.80;;;;;;5109549;28;20037;-60
2023/06/14 12:26:18;;;;;;;6.07;1.92;;;25.60;64.70;;;;;;5101709;28;20040;-60
2023/06/14 12:28:46;;;;;;;4.80;2.25;;;25.70;65.20;;;;;;5099005;28;20763;-60
2023/06/14 12:31:13;;;;;;;4.35;1.55;;;25.70;65.60;;;;;;5080857;28;20050;-60
2023/06/14 12:33:40;;;;;;;5.03;1.90;;;25.70;64.70;;;;;;5100633;28;20062;-60
2023/06/14 12:36:10;;;;;;;5.95;1.60;;;25.60;64.50;;;;;;5101745;28;20092;-60
2023/06/14 12:38:36;;;;;;;4.88;1.90;;;25.70;64.50;;;;;;5101124;28;20081;-60
2023/06/14 12:41:03;;;;;;;4.03;1.55;;;25.60;63.70;;;;;;5101398;28;20032;-61
2023/06/14 12:43:28;;;;;;;4.68;1.80;;;25.50;64.70;;;;;;5101125;28;20054;-60
2023/06/14 12:45:54;;;;;;;6.55;1.60;;;25.70;65.30;;;;;;5101099;28;20044;-60
2023/06/14 12:48:20;;;;;;;3.92;1.25;;;25.90;65.50;;;;;;5101268;28;20048;-60
2023/06/14 12:50:46;;;;;;;5.88;1.67;;;25.60;64.40;;;;;;5100906;28;20071;-60